Bovingdon, United Kingdom
Current Conditions -  °F | °C
As of 10:50 PM on Tuesday 21 Oct 2014 (Local Time) from EGGW Reporting Station
Clear Clear  
Wind Chill: 36°   Ceiling: Unl
Heat Index: 45°   Visibility: 6mi
Dew Point: 37°   Wind: 23mph
Humidity: 76%   Direction: 290°WNW
Pressure: 30.06"   Gusts: NA
Location:  51.72°N, 0.54°W
Report Text: EGGW 212150Z 29020KT CAVOK 07/03 Q1018
Loading
Personal Weather Stations






























Interactive Weather Map
Tropical Storm Tracking
New forecast layout! Learn more

10-Day Weather Forecast

Advertisements
Track Severe Weather on mobile